Time;durP1;ratioP1;P1;durP2;ratioP2;P2;SDS_P1;SDS_P2;PMS_P1;PMS_P2;Temp;Humidity;BMP_temperature;BMP_pressure;BME280_temperature;BME280_humidity;BME280_pressure;Samples;Min_cycle;Max_cycle;Signal;HPM_P1;HPM_P2
2021/03/22 00:00:25;;;;;;;26.10;4.53;;;;;;;7.91;53.60;102435.59;4931571;28;124720;-71
2021/03/22 00:02:52;;;;;;;21.02;4.47;;;;;;;7.89;53.67;102426.81;4917842;28;122912;-72
2021/03/22 00:05:19;;;;;;;26.17;4.35;;;;;;;7.86;53.96;102429.47;4930794;28;116317;-72
2021/03/22 00:07:46;;;;;;;24.45;4.28;;;;;;;7.85;54.01;102429.47;4931600;28;113798;-71
2021/03/22 00:10:14;;;;;;;27.70;4.60;;;;;;;7.82;53.88;102430.38;4932292;28;124530;-71
2021/03/22 00:12:40;;;;;;;25.23;4.55;;;;;;;7.79;54.09;102440.94;4930052;28;123679;-70
2021/03/22 00:15:26;;;;;;;26.80;4.22;;;;;;;7.77;53.84;102429.53;4930548;28;114359;-71
2021/03/22 00:17:53;;;;;;;25.02;4.25;;;;;;;7.74;54.41;102426.91;4930647;28;113293;-71
2021/03/22 00:20:20;;;;;;;20.15;4.10;;;;;;;7.72;54.23;102428.69;4931895;28;124417;-71
2021/03/22 00:22:47;;;;;;;31.90;4.40;;;;;;;7.69;54.40;102428.72;4929757;28;123133;-71
2021/03/22 00:25:14;;;;;;;25.10;4.43;;;;;;;7.66;54.30;102423.47;4930055;28;114013;-71
2021/03/22 00:27:41;;;;;;;25.85;4.82;;;;;;;7.64;54.50;102430.53;4930737;28;115080;-70
2021/03/22 00:30:11;;;;;;;26.77;4.45;;;;;;;7.62;54.41;102427.88;4930591;28;123022;-71
2021/03/22 00:32:37;;;;;;;25.17;4.57;;;;;;;7.60;54.63;102425.25;4914378;28;123851;-72
2021/03/22 00:35:04;;;;;;;21.63;4.30;;;;;;;7.60;54.45;102430.53;4928462;28;114629;-72
2021/03/22 00:37:31;;;;;;;28.05;4.93;;;;;;;7.57;54.43;102425.31;4931825;28;115631;-71
2021/03/22 00:39:57;;;;;;;27.13;4.53;;;;;;;7.56;54.45;102423.53;4930697;28;123927;-71
2021/03/22 00:42:24;;;;;;;20.88;5.18;;;;;;;7.55;54.48;102421.81;4944468;28;122648;-71
2021/03/22 00:44:50;;;;;;;23.40;4.70;;;;;;;7.53;54.81;102413.00;4930987;28;115027;-71
2021/03/22 00:47:17;;;;;;;16.50;4.55;;;;;;;7.49;54.72;102421.81;4931101;28;113943;-71
2021/03/22 00:49:44;;;;;;;27.02;4.85;;;;;;;7.48;54.76;102420.09;4931579;28;123799;-71
2021/03/22 00:52:11;;;;;;;22.63;4.10;;;;;;;7.45;54.75;102412.19;4934153;28;123595;-71
2021/03/22 00:54:40;;;;;;;21.35;4.93;;;;;;;7.44;55.10;102413.09;4933630;28;114704;-71
2021/03/22 00:57:08;;;;;;;31.27;5.35;;;;;;;7.43;55.24;102421.88;4934528;28;114521;-71
2021/03/22 00:59:35;;;;;;;25.90;5.25;;;;;;;7.40;55.16;102421.88;4931587;28;124414;-71
2021/03/22 01:02:04;;;;;;;20.50;4.63;;;;;;;7.40;55.34;102411.34;4933734;28;123476;-72
2021/03/22 01:04:31;;;;;;;20.73;4.40;;;;;;;7.39;54.85;102409.59;4933952;28;114741;-70
2021/03/22 01:06:57;;;;;;;20.10;4.45;;;;;;;7.37;55.28;102408.75;4933986;28;114130;-71
2021/03/22 01:09:24;;;;;;;18.95;4.43;;;;;;;7.35;55.06;102413.16;4935709;28;123100;-70
2021/03/22 01:11:52;;;;;;;25.40;5.47;;;;;;;7.33;55.08;102402.59;4933647;28;124158;-71
2021/03/22 01:14:18;;;;;;;20.63;4.40;;;;;;;7.33;55.57;102399.09;4932495;28;114654;-71
2021/03/22 01:16:45;;;;;;;22.98;5.40;;;;;;;7.31;55.32;102395.56;4934486;28;113521;-71
2021/03/22 01:19:19;;;;;;;27.38;4.80;;;;;;;7.29;55.68;102394.72;4948715;28;122806;-72
2021/03/22 01:21:49;;;;;;;20.30;4.75;;;;;;;7.27;55.68;102394.75;4929821;28;123820;-71
2021/03/22 01:24:19;;;;;;;23.55;5.07;;;;;;;7.25;55.83;102390.34;4932860;28;115257;-71
2021/03/22 01:26:48;;;;;;;25.95;5.43;;;;;;;7.25;55.83;102390.34;4933416;28;114439;-71
2021/03/22 01:29:22;;;;;;;20.20;5.03;;;;;;;7.21;55.95;102382.50;4968296;22;124065;-76
2021/03/22 01:31:48;;;;;;;28.15;5.00;;;;;;;7.22;55.87;102380.72;4960865;28;124139;-75
2021/03/22 01:34:15;;;;;;;28.42;5.10;;;;;;;7.20;55.98;102383.34;4954101;28;114394;-75
2021/03/22 01:36:42;;;;;;;27.52;4.80;;;;;;;7.18;56.05;102379.84;4949453;28;113676;-75
2021/03/22 01:39:12;;;;;;;27.08;5.32;;;;;;;7.15;56.33;102379.88;4948863;28;124207;-75
2021/03/22 01:42:15;;;;;;;31.77;5.43;;;;;;;7.13;56.22;102376.38;4945445;28;123920;-75
2021/03/22 01:44:46;;;;;;;25.70;5.30;;;;;;;7.10;56.28;102370.25;4931202;28;113932;-75
2021/03/22 01:47:19;;;;;;;30.75;5.63;;;;;;;7.08;56.25;102369.38;4933754;28;114655;-75
2021/03/22 01:50:07;;;;;;;26.38;5.30;;;;;;;7.05;56.21;102366.78;4931677;28;123992;-75
2021/03/22 01:52:36;;;;;;;26.35;5.63;;;;;;;7.05;56.51;102365.00;4920990;28;123443;-75
2021/03/22 01:55:06;;;;;;;22.40;5.65;;;;;;;7.05;56.17;102367.66;4936284;28;114420;-75
2021/03/22 01:57:35;;;;;;;24.50;5.18;;;;;;;7.05;56.28;102367.66;4936189;28;113016;-75
2021/03/22 02:00:10;;;;;;;24.65;5.65;;;;;;;7.03;56.66;102356.25;4934728;28;124647;-75
2021/03/22 02:02:38;;;;;;;27.80;5.50;;;;;;;7.02;56.51;102351.84;4933704;28;123879;-76
2021/03/22 02:05:07;;;;;;;29.30;5.50;;;;;;;7.00;56.71;102354.47;4932399;28;114404;-75
2021/03/22 02:07:34;;;;;;;29.73;5.50;;;;;;;7.00;56.60;102353.63;4935112;28;113797;-75
2021/03/22 02:10:01;;;;;;;28.13;5.93;;;;;;;6.99;56.77;102358.03;4937146;28;124768;-75
2021/03/22 02:12:31;;;;;;;28.42;5.55;;;;;;;6.99;57.10;102354.53;4936389;28;124226;-75
2021/03/22 02:14:58;;;;;;;29.98;5.95;;;;;;;6.99;57.04;102357.16;4933567;28;114004;-75
2021/03/22 02:17:49;;;;;;;22.80;5.45;;;;;;;6.98;56.76;102350.13;4933143;28;116096;-75
2021/03/22 02:20:47;;;;;;;24.73;5.70;;;;;;;6.98;56.80;102360.66;4931191;28;124226;-75
2021/03/22 02:23:34;;;;;;;27.48;6.07;;;;;;;6.96;57.09;102357.16;4931342;28;123922;-75
2021/03/22 02:26:13;;;;;;;20.60;5.40;;;;;;;6.95;56.91;102350.13;4931011;28;113063;-75
2021/03/22 02:28:54;;;;;;;21.75;5.35;;;;;;;6.93;56.88;102358.06;4933539;28;114029;-75
2021/03/22 02:31:39;;;;;;;31.40;6.25;;;;;;;6.93;56.72;102351.91;4934250;28;124354;-76
2021/03/22 02:34:21;;;;;;;26.73;6.50;;;;;;;6.91;57.04;102343.13;4944486;28;124181;-75
2021/03/22 02:37:06;;;;;;;24.08;6.32;;;;;;;6.87;56.97;102347.53;4935980;28;114236;-75
2021/03/22 02:39:47;;;;;;;19.00;5.72;;;;;;;6.86;56.98;102352.84;4934815;28;114049;-75
2021/03/22 02:42:15;;;;;;;22.40;5.63;;;;;;;6.86;57.16;102353.72;4940279;28;123556;-75
2021/03/22 02:44:42;;;;;;;30.20;7.13;;;;;;;6.87;57.12;102357.22;4946685;28;123184;-75
2021/03/22 02:47:25;;;;;;;24.23;6.47;;;;;;;6.85;57.12;102358.97;4940113;28;114156;-75
2021/03/22 02:49:56;;;;;;;27.33;6.07;;;;;;;6.84;57.16;102363.38;4932417;28;112965;-75
2021/03/22 02:52:37;;;;;;;29.73;6.00;;;;;;;6.80;57.31;102359.88;4932407;28;123676;-74
2021/03/22 02:55:15;;;;;;;26.98;5.95;;;;;;;6.79;57.05;102352.84;4931222;28;123869;-75
2021/03/22 02:57:49;;;;;;;24.48;5.90;;;;;;;6.80;57.47;102359.88;4933185;28;113541;-75
2021/03/22 03:00:21;;;;;;;33.55;6.65;;;;;;;6.78;57.52;102359.00;4935374;28;114160;-74
2021/03/22 03:02:55;;;;;;;27.60;6.55;;;;;;;6.77;57.25;102367.78;4930937;28;125496;-74
2021/03/22 03:05:25;;;;;;;26.25;7.35;;;;;;;6.77;57.32;102375.69;4930023;28;124178;-74
2021/03/22 03:08:05;;;;;;;30.15;6.90;;;;;;;6.76;57.56;102373.94;4931958;28;115530;-75
2021/03/22 03:10:32;;;;;;;32.40;6.70;;;;;;;6.75;57.45;102361.66;4929070;28;115081;-74
2021/03/22 03:12:59;;;;;;;27.60;6.88;;;;;;;6.75;57.24;102359.00;4929746;28;123106;-74
2021/03/22 03:15:25;;;;;;;24.30;6.43;;;;;;;6.74;57.16;102365.19;4913138;28;122626;-74
2021/03/22 03:17:52;;;;;;;26.55;6.82;;;;;;;6.73;57.02;102366.06;4934290;28;114517;-74
2021/03/22 03:20:26;;;;;;;21.63;6.53;;;;;;;6.70;57.35;102366.06;4934031;28;114195;-74
2021/03/22 03:22:54;;;;;;;27.27;7.07;;;;;;;6.70;57.46;102363.41;4933207;28;125457;-74
2021/03/22 03:25:21;;;;;;;25.70;7.00;;;;;;;6.69;57.29;102374.84;4933902;28;123836;-74
2021/03/22 03:27:48;;;;;;;31.35;6.80;;;;;;;6.67;57.43;102373.09;4931405;28;114282;-74
2021/03/22 03:30:19;;;;;;;31.83;7.50;;;;;;;6.65;57.35;102378.38;4933020;28;113067;-74
2021/03/22 03:32:46;;;;;;;29.38;6.78;;;;;;;6.63;57.63;102390.69;4931271;28;123517;-74
2021/03/22 03:35:15;;;;;;;27.92;7.25;;;;;;;6.60;57.39;102388.03;4931202;28;124063;-75
2021/03/22 03:37:42;;;;;;;25.70;7.00;;;;;;;6.60;57.46;102380.16;4933455;28;114960;-74
2021/03/22 03:40:17;;;;;;;26.10;7.70;;;;;;;6.58;57.41;102381.91;4932513;28;113480;-74
2021/03/22 03:42:43;;;;;;;26.08;6.93;;;;;;;6.57;57.21;102382.78;4930580;28;124184;-74
2021/03/22 03:45:14;;;;;;;27.27;7.45;;;;;;;6.53;57.32;102381.03;4932821;28;124389;-74
2021/03/22 03:47:42;;;;;;;30.75;7.25;;;;;;;6.52;57.49;102387.22;4934129;28;113359;-74
2021/03/22 03:50:17;;;;;;;32.63;7.30;;;;;;;6.52;57.83;102387.22;4942076;28;113900;-74
2021/03/22 03:52:45;;;;;;;30.25;7.45;;;;;;;6.52;57.82;102381.94;4946977;28;124127;-74
2021/03/22 03:55:13;;;;;;;28.17;7.13;;;;;;;6.54;57.88;102385.44;4941632;28;124656;-74
2021/03/22 03:57:43;;;;;;;31.35;7.10;;;;;;;6.54;57.79;102385.44;4932877;28;113696;-74
2021/03/22 04:00:14;;;;;;;34.47;8.18;;;;;;;6.57;57.92;102386.31;4930984;28;115327;-75
2021/03/22 04:02:41;;;;;;;31.08;8.00;;;;;;;6.60;58.23;102374.88;4932237;28;124296;-75
2021/03/22 04:05:10;;;;;;;30.33;8.25;;;;;;;6.63;58.18;102385.41;4947610;28;123119;-75
2021/03/22 04:07:36;;;;;;;35.33;8.82;;;;;;;6.65;58.35;102378.38;4915215;28;114322;-75
2021/03/22 04:10:04;;;;;;;28.73;8.27;;;;;;;6.67;58.17;102376.63;4934914;28;113403;-75
2021/03/22 04:12:31;;;;;;;33.20;8.15;;;;;;;6.71;58.33;102382.75;4934086;28;124660;-75
2021/03/22 04:14:58;;;;;;;35.30;8.63;;;;;;;6.72;58.29;102380.09;4931469;28;123139;-75
2021/03/22 04:17:24;;;;;;;35.85;8.57;;;;;;;6.76;58.38;102381.84;4931838;28;114046;-75
2021/03/22 04:19:51;;;;;;;37.30;8.88;;;;;;;6.80;58.71;102383.56;4933028;28;113818;-75
2021/03/22 04:22:18;;;;;;;41.72;8.65;;;;;;;6.83;58.79;102388.81;4934562;28;123733;-75
2021/03/22 04:24:44;;;;;;;33.92;8.98;;;;;;;6.87;58.61;102388.81;4935943;28;124742;-75
2021/03/22 04:27:11;;;;;;;37.67;9.60;;;;;;;6.90;58.75;102394.06;4938015;28;114030;-75
2021/03/22 04:29:37;;;;;;;40.47;9.13;;;;;;;6.94;59.02;102387.91;4934649;28;113994;-75
2021/03/22 04:32:04;;;;;;;37.63;9.07;;;;;;;6.97;58.82;102385.25;4935303;28;124624;-75
2021/03/22 04:34:31;;;;;;;36.13;9.32;;;;;;;7.01;59.02;102393.13;4934508;28;123067;-75
2021/03/22 04:36:58;;;;;;;35.42;9.70;;;;;;;7.04;59.00;102394.00;4937053;28;113992;-75
2021/03/22 04:39:24;;;;;;;38.47;9.70;;;;;;;7.06;58.99;102394.84;4935342;28;113886;-75
2021/03/22 04:41:51;;;;;;;29.85;9.23;;;;;;;7.08;59.06;102393.94;4936295;28;124229;-75
2021/03/22 04:44:17;;;;;;;28.80;8.88;;;;;;;7.11;59.24;102393.94;4933979;28;122792;-75
2021/03/22 04:46:44;;;;;;;31.80;8.77;;;;;;;7.14;59.39;102388.66;4934601;28;115914;-75
2021/03/22 04:49:11;;;;;;;40.40;9.48;;;;;;;7.17;59.34;102396.53;4950997;28;114748;-75
2021/03/22 04:51:37;;;;;;;40.75;9.57;;;;;;;7.19;59.24;102407.94;4935365;28;123738;-75
2021/03/22 04:54:05;;;;;;;32.08;9.43;;;;;;;7.20;59.42;102399.16;4935184;28;124653;-75
2021/03/22 04:56:31;;;;;;;34.45;9.32;;;;;;;7.24;59.37;102399.16;4945509;28;113413;-75
2021/03/22 04:58:58;;;;;;;41.83;9.30;;;;;;;7.28;59.25;102395.63;4937594;28;114165;-75
2021/03/22 05:01:24;;;;;;;34.95;9.45;;;;;;;7.32;59.44;102400.84;4936925;28;124220;-75
2021/03/22 05:03:51;;;;;;;34.15;9.23;;;;;;;7.35;59.38;102398.19;4932910;28;122842;-75
2021/03/22 05:06:19;;;;;;;36.83;9.30;;;;;;;7.39;59.31;102404.34;4942656;28;112656;-75
2021/03/22 05:08:46;;;;;;;30.67;9.25;;;;;;;7.42;59.50;102404.28;4942149;28;113606;-75
2021/03/22 05:11:15;;;;;;;30.95;8.60;;;;;;;7.46;59.37;102408.69;4936960;28;124257;-75
2021/03/22 05:13:41;;;;;;;34.88;9.57;;;;;;;7.49;59.66;102406.00;4935955;28;123991;-75
2021/03/22 05:16:08;;;;;;;35.30;9.27;;;;;;;7.53;59.94;102397.19;4930153;28;113492;-75
2021/03/22 05:18:35;;;;;;;34.35;9.70;;;;;;;7.55;59.68;102405.97;4937294;28;113991;-75
2021/03/22 05:21:05;;;;;;;37.42;9.25;;;;;;;7.57;59.54;102409.47;4953319;28;123579;-75
2021/03/22 05:23:34;;;;;;;38.40;9.55;;;;;;;7.59;59.59;102402.44;4934819;28;124518;-75
2021/03/22 05:26:02;;;;;;;38.50;9.57;;;;;;;7.62;59.65;102400.66;4937563;28;114279;-74
2021/03/22 05:28:30;;;;;;;31.88;9.48;;;;;;;7.66;59.43;102402.38;4919105;28;113822;-75
2021/03/22 05:30:57;;;;;;;38.78;10.20;;;;;;;7.67;59.46;102414.69;4933147;28;123246;-75
2021/03/22 05:33:25;;;;;;;40.25;9.55;;;;;;;7.69;59.72;102407.63;4931562;28;124153;-74
2021/03/22 05:35:55;;;;;;;44.20;9.70;;;;;;;7.70;59.43;102418.16;4934190;28;115052;-75
2021/03/22 05:38:23;;;;;;;30.00;9.80;;;;;;;7.71;59.73;102416.41;4933035;28;115893;-74
2021/03/22 05:40:57;;;;;;;35.55;9.98;;;;;;;7.71;59.62;102426.97;4930225;28;123272;-75
2021/03/22 05:43:42;;;;;;;36.70;9.85;;;;;;;7.72;59.62;102433.97;4931139;28;123674;-75
2021/03/22 05:46:14;;;;;;;32.78;9.93;;;;;;;7.71;59.83;102437.50;4930723;28;114633;-75
2021/03/22 05:49:23;;;;;;;35.50;9.90;;;;;;;7.68;59.90;102426.97;4935654;28;114493;-75
2021/03/22 05:52:19;;;;;;;36.85;9.20;;;;;;;7.67;59.76;102435.78;4915750;28;123782;-75
2021/03/22 05:55:08;;;;;;;39.47;9.52;;;;;;;7.67;60.16;102435.78;4930639;28;123145;-74
2021/03/22 05:58:05;;;;;;;35.63;9.68;;;;;;;7.67;59.97;102435.78;4933194;28;113527;-75
2021/03/22 06:00:50;;;;;;;35.50;9.68;;;;;;;7.69;60.29;102439.28;4950007;28;113096;-75
2021/03/22 06:03:27;;;;;;;34.63;9.30;;;;;;;7.71;60.49;102437.50;4939112;28;123834;-75
2021/03/22 06:06:00;;;;;;;36.85;9.88;;;;;;;7.74;60.40;102433.09;4955600;28;123503;-75
2021/03/22 06:08:56;;;;;;;34.80;9.40;;;;;;;7.77;60.49;102438.31;4945917;28;112243;-75
2021/03/22 06:11:35;;;;;;;35.22;9.93;;;;;;;7.82;60.50;102425.13;4942830;28;114335;-75
2021/03/22 06:14:24;;;;;;;33.00;9.70;;;;;;;7.88;60.23;102430.31;4935632;28;124500;-75
2021/03/22 06:17:00;;;;;;;39.05;10.18;;;;;;;7.91;60.63;102432.94;4933757;28;124228;-75
2021/03/22 06:19:42;;;;;;;33.25;9.43;;;;;;;7.97;60.38;102435.53;4944919;28;114538;-75
2021/03/22 06:22:18;;;;;;;38.55;9.77;;;;;;;8.02;60.37;102437.25;4937159;28;114044;-75
2021/03/22 06:24:45;;;;;;;34.75;9.73;;;;;;;8.05;60.48;102443.38;4934507;28;124252;-75
2021/03/22 06:27:13;;;;;;;34.53;9.45;;;;;;;8.07;60.71;102440.72;4935058;28;122131;-75
2021/03/22 06:29:40;;;;;;;41.95;10.07;;;;;;;8.09;60.45;102439.81;4932764;28;115511;-75
2021/03/22 06:32:42;;;;;;;39.65;9.73;;;;;;;8.12;60.34;102444.22;4932906;28;114699;-75
2021/03/22 06:35:16;;;;;;;38.20;10.25;;;;;;;8.13;60.34;102432.75;4923606;28;124216;-75
2021/03/22 06:37:43;;;;;;;38.05;9.25;;;;;;;8.15;60.39;102434.47;4916311;28;124459;-75
2021/03/22 06:40:33;;;;;;;39.13;9.40;;;;;;;8.18;60.82;102433.59;4933717;28;114403;-75
2021/03/22 06:43:10;;;;;;;35.92;9.70;;;;;;;8.21;60.44;102438.81;4929709;28;114242;-75
2021/03/22 06:46:12;;;;;;;41.47;9.38;;;;;;;8.23;60.60;102447.63;4916887;28;123736;-75
2021/03/22 06:48:38;;;;;;;36.15;8.95;;;;;;;8.27;61.12;102444.06;4931787;28;124728;-75
2021/03/22 06:51:08;;;;;;;39.30;9.57;;;;;;;8.29;61.05;102447.56;4916872;28;113742;-75
2021/03/22 06:53:47;;;;;;;37.42;9.60;;;;;;;8.33;60.98;102449.28;4932679;28;113838;-75
2021/03/22 06:56:25;;;;;;;34.83;9.65;;;;;;;8.37;61.13;102450.13;4945879;28;123754;-75
2021/03/22 06:59:08;;;;;;;35.35;9.73;;;;;;;8.42;61.08;102452.72;4931238;28;123875;-75
2021/03/22 07:01:35;;;;;;;39.17;9.63;;;;;;;8.46;60.95;102443.91;4932136;28;113508;-75
2021/03/22 07:04:29;;;;;;;37.38;10.20;;;;;;;8.49;61.34;102441.22;4934337;28;113018;-75
2021/03/22 07:07:14;;;;;;;38.08;10.13;;;;;;;8.52;60.91;102449.13;4942430;28;124063;-75
2021/03/22 07:09:47;;;;;;;34.93;10.37;;;;;;;8.54;60.87;102442.06;4935725;28;124000;-75
2021/03/22 07:12:30;;;;;;;42.00;10.18;;;;;;;8.56;61.25;102451.69;4950977;28;114746;-75
2021/03/22 07:15:20;;;;;;;43.40;10.10;;;;;;;8.60;61.12;102447.28;4933958;28;114542;-75
2021/03/22 07:18:24;;;;;;;41.70;10.32;;;;;;;8.66;60.99;102452.47;4931433;28;124418;-75
2021/03/22 07:20:59;;;;;;;39.50;10.00;;;;;;;8.73;61.09;102448.88;4932830;28;125453;-75
2021/03/22 07:23:33;;;;;;;37.40;9.13;;;;;;;8.79;61.28;102455.84;4933614;28;115760;-75
2021/03/22 07:26:09;;;;;;;29.90;9.55;;;;;;;8.86;61.33;102448.75;4921086;28;114309;-75
2021/03/22 07:28:42;;;;;;;36.03;10.70;;;;;;;8.90;61.30;102456.59;4932669;28;124057;-75
2021/03/22 07:31:23;;;;;;;27.80;8.95;;;;;;;8.95;61.13;102454.78;4968927;22;124430;-66
2021/03/22 07:34:11;;;;;;;38.10;9.57;;;;;;;9.00;61.47;102457.34;4948949;28;113627;-67
2021/03/22 07:37:15;;;;;;;38.88;9.13;;;;;;;9.07;61.20;102459.03;4948811;28;113555;-66
2021/03/22 07:39:57;;;;;;;32.35;9.23;;;;;;;9.14;61.27;102460.72;4951413;28;123981;-67
2021/03/22 07:42:39;;;;;;;33.13;9.07;;;;;;;9.19;61.26;102457.13;4947456;28;124100;-67
2021/03/22 07:45:48;;;;;;;30.15;8.85;;;;;;;9.25;61.22;102457.94;4949800;28;114425;-67
2021/03/22 07:48:27;;;;;;;37.78;9.05;;;;;;;9.29;60.86;102461.41;4948462;28;114113;-67
2021/03/22 07:51:30;;;;;;;38.88;9.60;;;;;;;9.35;61.07;102463.97;4962602;28;122702;-67
2021/03/22 07:54:22;;;;;;;37.17;9.93;;;;;;;9.37;61.32;102462.19;4950016;28;124309;-67
2021/03/22 07:57:01;;;;;;;35.25;9.55;;;;;;;9.41;60.77;102453.28;4948403;28;114910;-67
2021/03/22 07:59:52;;;;;;;32.95;9.00;;;;;;;9.44;60.85;102458.56;4933491;28;114037;-67
2021/03/22 08:02:40;;;;;;;33.13;9.40;;;;;;;9.48;61.01;102460.25;4948757;28;124020;-67
2021/03/22 08:05:11;;;;;;;30.02;9.30;;;;;;;9.54;60.69;102454.00;4947180;28;123941;-67
2021/03/22 08:07:54;;;;;;;40.22;9.73;;;;;;;9.58;60.97;102460.13;4946733;28;114741;-67
2021/03/22 08:10:28;;;;;;;31.52;9.43;;;;;;;9.64;60.92;102457.38;4938808;28;114459;-67
2021/03/22 08:13:22;;;;;;;35.25;9.27;;;;;;;9.68;60.95;102461.72;4946624;28;124670;-67
2021/03/22 08:16:04;;;;;;;33.95;9.10;;;;;;;9.73;60.97;102459.88;4941266;28;124237;-67
2021/03/22 08:18:44;;;;;;;37.50;9.98;;;;;;;9.78;60.66;102466.00;4941806;28;115635;-67
2021/03/22 08:21:25;;;;;;;39.88;9.15;;;;;;;9.82;60.32;102465.03;4950080;28;113910;-67
2021/03/22 08:24:23;;;;;;;33.20;8.25;;;;;;;9.86;60.24;102458.78;4947374;28;124130;-67
2021/03/22 08:27:11;;;;;;;28.95;9.20;;;;;;;9.89;60.17;102461.41;4957792;28;124337;-67
2021/03/22 08:29:48;;;;;;;28.95;8.68;;;;;;;9.93;60.42;102473.69;4946914;28;113867;-67
2021/03/22 08:32:49;;;;;;;24.75;7.38;;;;;;;9.94;60.18;102456.91;4948809;28;113083;-65
2021/03/22 08:35:39;;;;;;;30.45;6.60;;;;;;;9.98;60.40;102464.78;4964653;28;123282;-66
2021/03/22 08:38:12;;;;;;;28.42;8.63;;;;;;;10.01;60.11;102470.03;4938521;28;123244;-66
2021/03/22 08:40:54;;;;;;;30.80;7.95;;;;;;;10.02;60.24;102466.47;4965216;28;113761;-67
2021/03/22 08:43:55;;;;;;;27.85;8.02;;;;;;;10.04;60.14;102470.88;4944316;28;114126;-66
2021/03/22 08:46:40;;;;;;;28.65;7.53;;;;;;;10.06;60.06;102473.50;4949917;28;125317;-66
2021/03/22 08:49:23;;;;;;;29.98;7.13;;;;;;;10.07;59.66;102475.22;4947168;28;123887;-66
2021/03/22 08:51:57;;;;;;;23.92;7.03;;;;;;;10.07;59.61;102476.09;4949679;28;113335;-66
2021/03/22 08:54:31;;;;;;;27.77;7.20;;;;;;;10.05;59.65;102474.38;4948996;28;112824;-66
2021/03/22 08:57:22;;;;;;;25.33;7.18;;;;;;;10.04;59.62;102485.84;4920744;28;123466;-66
2021/03/22 09:00:07;;;;;;;18.08;6.22;;;;;;;10.01;59.30;102483.28;4948291;28;124136;-66
2021/03/22 09:02:35;;;;;;;11.40;5.50;;;;;;;9.98;59.23;102483.31;4946743;28;114175;-66
2021/03/22 09:05:18;;;;;;;17.08;5.40;;;;;;;9.98;59.62;102485.97;4950733;28;113987;-67
2021/03/22 09:07:45;;;;;;;17.48;5.70;;;;;;;10.01;59.53;102491.22;4946997;28;123648;-67
2021/03/22 09:10:36;;;;;;;17.90;5.57;;;;;;;10.03;59.50;102484.13;4952927;28;123304;-67
2021/03/22 09:13:19;;;;;;;15.75;5.60;;;;;;;10.09;59.66;102486.66;4949354;28;114404;-67
2021/03/22 09:16:03;;;;;;;18.02;5.88;;;;;;;10.14;59.62;102487.47;4968459;28;114292;-66
2021/03/22 09:18:31;;;;;;;15.77;5.82;;;;;;;10.22;59.73;102487.34;4948958;28;124677;-66
2021/03/22 09:21:17;;;;;;;15.70;5.75;;;;;;;10.25;59.54;102490.81;4952045;28;124682;-66
2021/03/22 09:23:45;;;;;;;17.27;5.25;;;;;;;10.31;59.39;102489.84;4950043;28;114747;-66
2021/03/22 09:26:12;;;;;;;17.42;5.50;;;;;;;10.32;59.10;102487.19;4950634;28;114597;-66
2021/03/22 09:28:48;;;;;;;14.95;5.63;;;;;;;10.36;58.97;102487.13;4952631;28;125038;-66
2021/03/22 09:31:15;;;;;;;17.92;5.50;;;;;;;10.38;58.86;102490.59;4964490;28;124284;-66
2021/03/22 09:34:14;;;;;;;14.63;5.30;;;;;;;10.37;59.16;102488.88;4965016;28;113446;-67
2021/03/22 09:36:45;;;;;;;16.55;5.35;;;;;;;10.41;58.77;102487.91;4968373;28;113556;-65
2021/03/22 09:39:12;;;;;;;16.67;5.50;;;;;;;10.43;58.70;102488.75;4976195;28;122323;-67
2021/03/22 09:42:02;;;;;;;12.90;5.28;;;;;;;10.45;59.02;102494.91;4959029;28;122709;-66
2021/03/22 09:44:34;;;;;;;15.25;4.75;;;;;;;10.50;58.47;102501.00;4953761;28;115618;-67
2021/03/22 09:47:24;;;;;;;17.02;4.90;;;;;;;10.51;58.62;102492.16;4966739;28;113384;-66
2021/03/22 09:50:00;;;;;;;18.08;4.82;;;;;;;10.52;58.64;102500.06;4953277;28;123688;-66
2021/03/22 09:52:34;;;;;;;14.07;4.78;;;;;;;10.55;58.25;102504.44;4953017;28;122945;-68
2021/03/22 09:55:26;;;;;;;17.08;4.65;;;;;;;10.56;58.32;102495.56;4951698;28;114147;-67
2021/03/22 09:58:36;;;;;;;13.05;4.78;;;;;;;10.59;58.51;102499.97;4951069;28;114082;-67
2021/03/22 10:01:24;;;;;;;11.95;4.90;;;;;;;10.61;58.07;102504.31;4944712;28;124788;-67
2021/03/22 10:04:13;;;;;;;14.23;5.07;;;;;;;10.63;58.02;102507.81;4948546;28;123933;-67
2021/03/22 10:06:40;;;;;;;14.63;4.78;;;;;;;10.66;58.03;102506.88;4952125;28;115207;-67
2021/03/22 10:09:24;;;;;;;15.85;4.95;;;;;;;10.69;58.45;102502.38;4953734;28;115212;-67
2021/03/22 10:11:53;;;;;;;13.50;4.57;;;;;;;10.76;58.23;102504.94;4952915;28;123453;-67
2021/03/22 10:14:29;;;;;;;12.85;4.22;;;;;;;10.79;58.05;102504.88;4967136;28;125055;-67
2021/03/22 10:16:58;;;;;;;13.07;4.57;;;;;;;10.85;58.01;102494.13;4967922;28;113412;-66
2021/03/22 10:19:29;;;;;;;14.85;4.60;;;;;;;10.91;58.23;102491.41;4952882;28;113724;-66
2021/03/22 10:22:14;;;;;;;11.50;4.32;;;;;;;10.99;57.76;102500.06;4951168;28;123581;-66
2021/03/22 10:25:02;;;;;;;10.93;3.92;;;;;;;11.06;57.60;102501.69;4949026;28;124378;-66
2021/03/22 10:27:34;;;;;;;21.70;5.05;;;;;;;11.14;57.82;102498.88;4950631;28;113143;-67
2021/03/22 10:30:12;;;;;;;14.10;4.68;;;;;;;11.21;57.47;102491.69;4951036;28;113832;-66
2021/03/22 10:32:45;;;;;;;9.60;4.00;;;;;;;11.27;57.43;102499.50;4950332;28;123483;-66
2021/03/22 10:35:16;;;;;;;11.90;4.28;;;;;;;11.31;57.36;102495.88;4949069;28;124025;-66
2021/03/22 10:37:52;;;;;;;13.10;4.45;;;;;;;11.35;56.95;102497.53;4946954;28;114205;-66
2021/03/22 10:40:35;;;;;;;10.48;4.40;;;;;;;11.38;56.81;102508.09;4950498;28;114343;-66
2021/03/22 10:43:03;;;;;;;14.95;4.70;;;;;;;11.39;56.79;102504.50;4948805;28;124821;-66
2021/03/22 10:45:43;;;;;;;15.25;4.68;;;;;;;11.39;56.74;102504.50;4952722;28;123240;-66
2021/03/22 10:48:27;;;;;;;14.60;3.92;;;;;;;11.40;56.73;102500.97;4951624;28;113426;-66
2021/03/22 10:51:08;;;;;;;10.30;3.95;;;;;;;11.44;56.71;102507.09;4949937;28;113742;-67
2021/03/22 10:53:55;;;;;;;9.75;3.92;;;;;;;11.46;56.60;102503.47;4950952;28;124052;-66
2021/03/22 10:56:32;;;;;;;11.13;3.33;;;;;;;11.52;56.45;102504.25;4948914;28;124618;-66
2021/03/22 10:59:03;;;;;;;8.77;3.40;;;;;;;11.55;56.07;102498.91;4944095;28;114922;-66
2021/03/22 11:01:36;;;;;;;10.48;3.88;;;;;;;11.59;55.96;102500.56;4952091;28;115545;-66
2021/03/22 11:04:15;;;;;;;11.35;3.72;;;;;;;11.63;55.94;102503.09;4938494;28;124920;-66
2021/03/22 11:06:45;;;;;;;9.07;3.58;;;;;;;11.68;55.74;102505.66;4941544;28;124302;-66
2021/03/22 11:09:25;;;;;;;11.68;3.78;;;;;;;11.72;55.58;102512.66;4951253;28;114406;-67
2021/03/22 11:11:53;;;;;;;8.25;3.55;;;;;;;11.76;55.25;102514.31;4933360;28;113484;-67
2021/03/22 11:14:22;;;;;;;7.05;3.53;;;;;;;11.76;55.28;102514.31;4934328;28;123357;-66
2021/03/22 11:16:50;;;;;;;9.88;3.55;;;;;;;11.77;55.32;102516.06;4967438;28;122843;-67
2021/03/22 11:19:39;;;;;;;7.53;3.33;;;;;;;11.76;55.21;102519.63;4952062;28;114245;-67
2021/03/22 11:22:37;;;;;;;6.43;2.60;;;;;;;11.77;54.94;102521.38;4963959;28;113090;-68
2021/03/22 11:25:34;;;;;;;7.28;2.75;;;;;;;11.77;54.87;102529.34;4943753;28;124718;-67
2021/03/22 11:28:25;;;;;;;7.22;2.35;;;;;;;11.78;54.78;102523.13;4937729;28;123769;-67
2021/03/22 11:30:52;;;;;;;7.38;2.50;;;;;;;11.83;54.64;102526.53;4964812;28;114698;-67
2021/03/22 11:33:25;;;;;;;6.63;2.45;;;;;;;11.87;54.86;102520.25;4948704;28;114316;-67
2021/03/22 11:36:08;;;;;;;8.18;2.58;;;;;;;11.94;54.62;102523.69;4949549;28;124392;-68
2021/03/22 11:38:57;;;;;;;5.50;2.53;;;;;;;12.01;54.20;102524.38;4939357;28;124216;-68
2021/03/22 11:41:31;;;;;;;6.10;2.50;;;;;;;12.07;53.78;102524.22;4950433;28;113397;-68
2021/03/22 11:44:04;;;;;;;8.18;2.47;;;;;;;12.09;53.93;102522.41;4951704;28;113547;-68
2021/03/22 11:46:32;;;;;;;4.50;2.08;;;;;;;12.14;53.50;102520.53;4933802;28;124004;-68
2021/03/22 11:49:00;;;;;;;5.88;1.90;;;;;;;12.15;52.78;102516.06;4964566;28;121727;-68
2021/03/22 11:51:27;;;;;;;5.97;1.90;;;;;;;12.14;52.50;102520.53;4950349;28;114244;-68